Atwater, Ohio
Current Conditions -  °F | °C
As of 8:57 AM on Saturday 25 Oct 2014 (Local Time) from KPOV Reporting Station
Overcast Overcast  
Wind Chill: 47°   Ceiling: 9500
Heat Index: 49°   Visibility: 10mi
Dew Point: 43°   Wind: 5mph
Humidity: 80%   Direction: 230°SW
Pressure: 29.92"   Gusts: NA
Location:  41.02°N, 81.16°W
Report Text: KPOV 251257Z AUTO 23004KT 10SM OVC095 09/06 A2992 RMK AO2 T00930060
Loading
Personal Weather Stations






























Interactive Weather Map
Tropical Storm Tracking
New forecast layout! Learn more

10-Day Weather Forecast

Advertisements
Track Severe Weather on mobile